| time (UTC) | temp C | wind direction | speed KPH | gust KPH | rain 1hr cm | rain 24hr cm | rain mn cm | humidity % | barometer mb |
| 20260906212318 | 34 | 238 | 8.0 | 20.9 | 0.00 | 0.00 | 0.00 | 29 | 1013.6 |
| 20260906211817 | 35 | 169 | 11.3 | 16.1 | 0.00 | 0.00 | 0.00 | 29 | 1013.6 |
| 20260906211313 | 33 | 159 | 14.5 | 32.2 | 0.00 | 0.00 | 0.00 | 30 | 1013.6 |
| 20260906210812 | 35 | 136 | 17.7 | 27.4 | 0.00 | 0.00 | 0.00 | 29 | 1013.6 |
| 20260906210307 | 35 | 135 | 12.9 | 19.3 | 0.00 | 0.00 | 0.00 | 29 | 1013.8 |
| 20260906205802 | 35 | 165 | 12.9 | 22.5 | 0.00 | 0.00 | 0.00 | 30 | 1013.8 |
| 20260906205259 | 35 | 155 | 12.9 | 22.5 | 0.00 | 0.00 | 0.00 | 30 | 1013.9 |
| 20260906204754 | 34 | 176 | 8.0 | 16.1 | 0.00 | 0.00 | 0.00 | 31 | 1013.9 |
| 20260906204253 | 33 | 212 | 8.0 | 19.3 | 0.00 | 0.00 | 0.00 | 32 | 1013.9 |
| 20260906203752 | 32 | 134 | 16.1 | 17.7 | 0.00 | 0.00 | 0.00 | 33 | 1014.1 |
| 20260906203248 | 32 | 119 | 16.1 | 29.0 | 0.00 | 0.00 | 0.00 | 33 | 1013.9 |
| 20260906202744 | 33 | 132 | 24.1 | 33.8 | 0.00 | 0.00 | 0.00 | 32 | 1013.9 |
| 20260906202238 | 34 | 146 | 14.5 | 37.0 | 0.00 | 0.00 | 0.00 | 32 | 1014.1 |
| 20260906201733 | 35 | 196 | 8.0 | 14.5 | 0.00 | 0.00 | 0.00 | 31 | 1014.0 |
| 20260906201232 | 33 | 190 | 14.5 | 20.9 | 0.00 | 0.00 | 0.00 | 32 | 1013.9 |
| 20260906200728 | 33 | 135 | 9.7 | 14.5 | 0.00 | 0.00 | 0.00 | 32 | 1014.0 |
| 20260906200224 | 33 | 127 | 29.0 | 29.0 | 0.00 | 0.00 | 0.00 | 31 | 1014.3 |
| 20260906195720 | 33 | 128 | 17.7 | 20.9 | 0.00 | 0.00 | 0.00 | 31 | 1014.2 |
| 20260906195216 | 34 | 205 | 6.4 | 14.5 | 0.00 | 0.00 | 0.00 | 31 | 1014.5 |
| 20260906194711 | 34 | 161 | 6.4 | 16.1 | 0.00 | 0.00 | 0.00 | 32 | 1014.5 |
| 20260906194207 | 33 | 168 | 8.0 | 9.7 | 0.00 | 0.00 | 0.00 | 33 | 1014.7 |
| 20260906193702 | 33 | 165 | 6.4 | 9.7 | 0.00 | 0.00 | 0.00 | 32 | 1014.7 |
| 20260906193156 | 33 | 158 | 9.7 | 20.9 | 0.00 | 0.00 | 0.00 | 32 | 1014.6 |
| 20260906192653 | 32 | 130 | 27.4 | 30.6 | 0.00 | 0.00 | 0.00 | 33 | 1014.7 |
| 20260906192152 | 33 | 120 | 11.3 | 20.9 | 0.00 | 0.00 | 0.00 | 32 | 1014.8 |
| 20260906191647 | 33 | 249 | 8.0 | 14.5 | 0.00 | 0.00 | 0.00 | 32 | 1014.8 |
| 20260906191146 | 34 | 198 | 14.5 | 20.9 | 0.00 | 0.00 | 0.00 | 31 | 1014.9 |
| 20260906190640 | 34 | 182 | 12.9 | 17.7 | 0.00 | 0.00 | 0.00 | 32 | 1014.8 |
| 20260906190135 | 33 | 205 | 14.5 | 17.7 | 0.00 | 0.00 | 0.00 | 33 | 1014.8 |
| 20260906185634 | 33 | 213 | 11.3 | 20.9 | 0.00 | 0.00 | 0.00 | 33 | 1015.1 |
| 20260906185134 | 33 | 223 | 6.4 | 16.1 | 0.00 | 0.00 | 0.00 | 34 | 1015.1 |
| 20260906184628 | 33 | 192 | 9.7 | 24.1 | 0.00 | 0.00 | 0.00 | 33 | 1015.6 |
| 20260906184124 | 33 | 134 | 17.7 | 22.5 | 0.00 | 0.00 | 0.00 | 33 | 1015.1 |
| 20260906183620 | 33 | 183 | 3.2 | 12.9 | 0.00 | 0.00 | 0.00 | 33 | 1015.6 |
| 20260906183115 | 33 | 216 | 16.1 | 22.5 | 0.00 | 0.00 | 0.00 | 34 | 1015.7 |
| 20260906182610 | 33 | 168 | 9.7 | 14.5 | 0.00 | 0.00 | 0.00 | 33 | 1015.6 |
| 20260906182107 | 33 | 217 | 14.5 | 24.1 | 0.00 | 0.00 | 0.00 | 35 | 1015.7 |
| 20260906181607 | 33 | 188 | 8.0 | 27.4 | 0.00 | 0.00 | 0.00 | 35 | 1015.7 |
| 20260906181103 | 33 | 210 | 19.3 | 22.5 | 0.00 | 0.00 | 0.00 | 35 | 1015.9 |
| 20260906180557 | 32 | 210 | 14.5 | 20.9 | 0.00 | 0.00 | 0.00 | 35 | 1016.0 |
| 20260906180056 | 32 | 200 | 11.3 | 24.1 | 0.00 | 0.00 | 0.00 | 35 | 1015.9 |
| 20260906175555 | 33 | 177 | 4.8 | 17.7 | 0.00 | 0.00 | 0.00 | 35 | 1015.9 |
| 20260906175051 | 33 | 176 | 16.1 | 24.1 | 0.00 | 0.00 | 0.00 | 35 | 1015.9 |
| 20260906174548 | 32 | 228 | 14.5 | 17.7 | 0.00 | 0.00 | 0.00 | 36 | 1016.4 |
| 20260906174044 | 32 | 156 | 12.9 | 22.5 | 0.00 | 0.00 | 0.00 | 36 | 1016.2 |
| 20260906173538 | 32 | 204 | 12.9 | 19.3 | 0.00 | 0.00 | 0.00 | 36 | 1016.2 |
| 20260906173035 | 32 | 154 | 9.7 | 14.5 | 0.00 | 0.00 | 0.00 | 37 | 1016.2 |
| 20260906172529 | 32 | 236 | 4.8 | 20.9 | 0.00 | 0.00 | 0.00 | 37 | 1016.5 |
| 20260906172024 | 33 | 193 | 11.3 | 17.7 | 0.00 | 0.00 | 0.00 | 36 | 1016.2 |
| 20260906171519 | 32 | 223 | 9.7 | 20.9 | 0.00 | 0.00 | 0.00 | 37 | 1016.4 |
| 20260906171014 | 32 | 210 | 11.3 | 20.9 | 0.00 | 0.00 | 0.00 | 37 | 1016.4 |
| 20260906170510 | 32 | 166 | 6.4 | 22.5 | 0.00 | 0.00 | 0.00 | 39 | 1016.5 |
| 20260906170009 | 32 | 164 | 8.0 | 17.7 | 0.00 | 0.00 | 0.00 | 39 | 1016.6 |
| 20260906165506 | 32 | 179 | 8.0 | 16.1 | 0.00 | 0.00 | 0.00 | 39 | 1016.5 |
| 20260906165001 | 32 | 191 | 11.3 | 17.7 | 0.00 | 0.00 | 0.00 | 39 | 1016.5 |
| 20260906164500 | 32 | 181 | 4.8 | 20.9 | 0.00 | 0.00 | 0.00 | 41 | 1016.5 |
| 20260906163957 | 31 | 176 | 6.4 | 17.7 | 0.00 | 0.00 | 0.00 | 42 | 1016.7 |
| 20260906163452 | 31 | 187 | 4.8 | 14.5 | 0.00 | 0.00 | 0.00 | 42 | 1016.6 |
| 20260906162950 | 31 | 217 | 17.7 | 27.4 | 0.00 | 0.00 | 0.00 | 41 | 1016.5 |
| 20260906162449 | 31 | 178 | 17.7 | 22.5 | 0.00 | 0.00 | 0.00 | 42 | 1016.7 |
| 20260906161943 | 31 | 201 | 17.7 | 27.4 | 0.00 | 0.00 | 0.00 | 42 | 1016.7 |
| 20260906161438 | 31 | 207 | 12.9 | 24.1 | 0.00 | 0.00 | 0.00 | 43 | 1016.6 |
| 20260906160937 | 31 | 153 | 16.1 | 17.7 | 0.00 | 0.00 | 0.00 | 45 | 1016.6 |
| 20260906160430 | 30 | 220 | 20.9 | 24.1 | 0.00 | 0.00 | 0.00 | 45 | 1016.6 |
| 20260906155929 | 30 | 192 | 19.3 | 22.5 | 0.00 | 0.00 | 0.00 | 45 | 1016.7 |
| 20260906155422 | 30 | 233 | 12.9 | 22.5 | 0.00 | 0.00 | 0.00 | 46 | 1016.5 |
| 20260906154919 | 30 | 221 | 11.3 | 20.9 | 0.00 | 0.00 | 0.00 | 46 | 1016.2 |
| 20260906154413 | 30 | 208 | 17.7 | 24.1 | 0.00 | 0.00 | 0.00 | 46 | 1016.1 |
| 20260906153912 | 30 | 210 | 4.8 | 24.1 | 0.00 | 0.00 | 0.00 | 47 | 1016.1 |
| 20260906153410 | 30 | 213 | 14.5 | 25.7 | 0.00 | 0.00 | 0.00 | 47 | 1016.0 |
| 20260906152906 | 30 | 221 | 20.9 | 24.1 | 0.00 | 0.00 | 0.00 | 47 | 1016.4 |
| 20260906152401 | 29 | 192 | 14.5 | 22.5 | 0.00 | 0.00 | 0.00 | 48 | 1016.4 |
| 20260906151900 | 29 | 215 | 14.5 | 22.5 | 0.00 | 0.00 | 0.00 | 49 | 1016.4 |
| 20260906151356 | 28 | 228 | 16.1 | 22.5 | 0.00 | 0.00 | 0.00 | 49 | 1016.5 |
| 20260906150851 | 28 | 211 | 19.3 | 25.7 | 0.00 | 0.00 | 0.00 | 50 | 1016.5 |
| 20260906150347 | 28 | 219 | 16.1 | 24.1 | 0.00 | 0.00 | 0.00 | 51 | 1016.4 |
| 20260906145846 | 28 | 220 | 9.7 | 20.9 | 0.00 | 0.00 | 0.00 | 51 | 1016.1 |
| 20260906145345 | 28 | 208 | 12.9 | 20.9 | 0.00 | 0.00 | 0.00 | 51 | 1016.4 |
| 20260906144840 | 28 | 192 | 8.0 | 20.9 | 0.00 | 0.00 | 0.00 | 51 | 1016.1 |
| 20260906144335 | 28 | 224 | 14.5 | 22.5 | 0.00 | 0.00 | 0.00 | 51 | 1016.2 |
| 20260906143834 | 27 | 214 | 11.3 | 20.9 | 0.00 | 0.00 | 0.00 | 51 | 1016.1 |
| 20260906143325 | 27 | 210 | 14.5 | 22.5 | 0.00 | 0.00 | 0.00 | 51 | 1016.4 |
| 20260906142821 | 27 | 220 | 11.3 | 20.9 | 0.00 | 0.00 | 0.00 | 52 | 1016.1 |
| 20260906142321 | 27 | 217 | 12.9 | 19.3 | 0.00 | 0.00 | 0.00 | 51 | 1016.5 |
| 20260906141815 | 27 | 217 | 12.9 | 19.3 | 0.00 | 0.00 | 0.00 | 52 | 1016.1 |
| 20260906141310 | 26 | 230 | 12.9 | 17.7 | 0.00 | 0.00 | 0.00 | 53 | 1016.2 |
| 20260906140808 | 26 | 227 | 12.9 | 17.7 | 0.00 | 0.00 | 0.00 | 54 | 1015.9 |
| 20260906140304 | 26 | 232 | 6.4 | 17.7 | 0.00 | 0.00 | 0.00 | 54 | 1016.0 |
| 20260906135801 | 26 | 238 | 14.5 | 17.7 | 0.00 | 0.00 | 0.00 | 54 | 1015.8 |
| 20260906135256 | 25 | 193 | 8.0 | 11.3 | 0.00 | 0.00 | 0.00 | 54 | 1016.0 |
| 20260906134752 | 25 | 192 | 4.8 | 11.3 | 0.00 | 0.00 | 0.00 | 55 | 1016.1 |
| 20260906134247 | 25 | 233 | 6.4 | 12.9 | 0.00 | 0.00 | 0.00 | 55 | 1015.7 |
| 20260906133742 | 25 | 243 | 9.7 | 11.3 | 0.00 | 0.00 | 0.00 | 55 | 1015.9 |
| 20260906133238 | 25 | 226 | 9.7 | 12.9 | 0.00 | 0.00 | 0.00 | 56 | 1015.6 |
| 20260906132733 | 24 | 197 | 8.0 | 12.9 | 0.00 | 0.00 | 0.00 | 56 | 1015.7 |
| 20260906132228 | 24 | 214 | 8.0 | 12.9 | 0.00 | 0.00 | 0.00 | 56 | 1015.5 |
| 20260906131724 | 24 | 221 | 9.7 | 16.1 | 0.00 | 0.00 | 0.00 | 57 | 1015.6 |
| 20260906131219 | 24 | 210 | 4.8 | 17.7 | 0.00 | 0.00 | 0.00 | 57 | 1015.5 |
| 20260906130714 | 24 | 243 | 6.4 | 16.1 | 0.00 | 0.00 | 0.00 | 57 | 1015.5 |
| 20260906130209 | 24 | 210 | 3.2 | 16.1 | 0.00 | 0.00 | 0.00 | 57 | 1015.5 |
| 20260906125707 | 23 | 219 | 8.0 | 16.1 | 0.00 | 0.00 | 0.00 | 57 | 1015.5 |
| 20260906125206 | 23 | 215 | 8.0 | 17.7 | 0.00 | 0.00 | 0.00 | 58 | 1015.2 |
| 20260906124701 | 23 | 211 | 11.3 | 16.1 | 0.00 | 0.00 | 0.00 | 58 | 1015.5 |
| 20260906124157 | 23 | 189 | 9.7 | 16.1 | 0.00 | 0.00 | 0.00 | 58 | 1015.4 |
| 20260906123655 | 23 | 186 | 11.3 | 12.9 | 0.00 | 0.00 | 0.00 | 59 | 1014.9 |
| 20260906123151 | 23 | 202 | 4.8 | 12.9 | 0.00 | 0.00 | 0.00 | 59 | 1015.0 |
| 20260906122650 | 23 | 158 | 4.8 | 9.7 | 0.00 | 0.00 | 0.00 | 59 | 1015.2 |
| 20260906122146 | 23 | 192 | 3.2 | 8.0 | 0.00 | 0.00 | 0.00 | 59 | 1015.1 |
| 20260906121642 | 23 | 204 | 1.6 | 4.8 | 0.00 | 0.00 | 0.00 | 59 | 1015.5 |
| 20260906121138 | 23 | 155 | 3.2 | 4.8 | 0.00 | 0.00 | 0.00 | 59 | 1015.4 |
| 20260906120633 | 23 | 130 | 1.6 | 3.2 | 0.00 | 0.00 | 0.00 | 58 | 1015.2 |
| 20260906120130 | 23 | 202 | 1.6 | 8.0 | 0.00 | 0.00 | 0.00 | 58 | 1015.2 |
| 20260906115625 | 23 | 204 | 4.8 | 16.1 | 0.00 | 0.00 | 0.00 | 58 | 1015.1 |
| 20260906115121 | 23 | 163 | 4.8 | 8.0 | 0.00 | 0.00 | 0.00 | 57 | 1015.0 |
| 20260906114619 | 23 | 258 | 6.4 | 11.3 | 0.00 | 0.00 | 0.00 | 58 | 1015.4 |
| 20260906114114 | 23 | 210 | 6.4 | 8.0 | 0.00 | 0.00 | 0.00 | 57 | 1015.0 |
| 20260906113609 | 23 | 187 | 3.2 | 8.0 | 0.00 | 0.00 | 0.00 | 57 | 1015.1 |
| 20260906113104 | 23 | 182 | 1.6 | 11.3 | 0.00 | 0.00 | 0.00 | 57 | 1015.2 |
| 20260906112604 | 23 | 230 | 6.4 | 11.3 | 0.00 | 0.00 | 0.00 | 57 | 1015.1 |
| 20260906112100 | 23 | 184 | 4.8 | 11.3 | 0.00 | 0.00 | 0.00 | 56 | 1015.0 |
| 20260906111559 | 23 | 210 | 3.2 | 11.3 | 0.00 | 0.00 | 0.00 | 56 | 1015.1 |
| 20260906111055 | 24 | 169 | 4.8 | 11.3 | 0.00 | 0.00 | 0.00 | 56 | 1015.0 |
| 20260906110554 | 23 | 222 | 6.4 | 12.9 | 0.00 | 0.00 | 0.00 | 56 | 1014.8 |
| 20260906110054 | 23 | 217 | 6.4 | 9.7 | 0.00 | 0.00 | 0.00 | 56 | 1014.9 |
| 20260906105549 | 23 | 200 | 4.8 | 9.7 | 0.00 | 0.00 | 0.00 | 56 | 1014.7 |
| 20260906105045 | 23 | 223 | 6.4 | 11.3 | 0.00 | 0.00 | 0.00 | 56 | 1015.0 |
| 20260906104543 | 24 | 229 | 6.4 | 9.7 | 0.00 | 0.00 | 0.00 | 56 | 1014.7 |
| 20260906104038 | 24 | 228 | 4.8 | 11.3 | 0.00 | 0.00 | 0.00 | 56 | 1014.8 |
| 20260906103536 | 24 | 211 | 0.0 | 9.7 | 0.00 | 0.00 | 0.00 | 56 | 1014.8 |
| 20260906103032 | 24 | 191 | 1.6 | 8.0 | 0.00 | 0.00 | 0.00 | 56 | 1014.9 |
| 20260906102532 | 24 | 177 | 6.4 | 9.7 | 0.00 | 0.00 | 0.00 | 56 | 1014.8 |
| 20260906102027 | 23 | 201 | 3.2 | 8.0 | 0.00 | 0.00 | 0.00 | 56 | 1014.9 |
| 20260906101521 | 23 | 176 | 3.2 | 8.0 | 0.00 | 0.00 | 0.00 | 56 | 1014.7 |
| 20260906101016 | 23 | 250 | 3.2 | 8.0 | 0.00 | 0.00 | 0.00 | 56 | 1014.6 |
| 20260906100512 | 24 | 209 | 8.0 | 8.0 | 0.00 | 0.00 | 0.00 | 55 | 1014.5 |
| 20260906100007 | 24 | 234 | 9.7 | 9.7 | 0.00 | 0.00 | 0.00 | 55 | 1014.6 |
| 20260906095501 | 24 | 211 | 6.4 | 8.0 | 0.00 | 0.00 | 0.00 | 55 | 1014.3 |
| 20260906094956 | 24 | 214 | 4.8 | 9.7 | 0.00 | 0.00 | 0.00 | 54 | 1014.6 |
| 20260906094455 | 24 | 195 | 6.4 | 8.0 | 0.00 | 0.00 | 0.00 | 54 | 1014.7 |
| 20260906093952 | 24 | 249 | 3.2 | 8.0 | 0.00 | 0.00 | 0.00 | 54 | 1014.5 |
| 20260906093448 | 25 | 249 | 8.0 | 9.7 | 0.00 | 0.00 | 0.00 | 53 | 1014.6 |
| 20260906092947 | 25 | 183 | 8.0 | 8.0 | 0.00 | 0.00 | 0.00 | 53 | 1014.7 |
| 20260906092442 | 25 | 196 | 4.8 | 8.0 | 0.00 | 0.00 | 0.00 | 52 | 1014.9 |
| 20260906091937 | 25 | 197 | 3.2 | 11.3 | 0.00 | 0.00 | 0.00 | 52 | 1014.3 |
| 20260906091433 | 25 | 220 | 6.4 | 9.7 | 0.00 | 0.00 | 0.00 | 52 | 1014.7 |
| 20260906090929 | 25 | 230 | 4.8 | 9.7 | 0.00 | 0.00 | 0.00 | 52 | 1014.6 |
| 20260906090424 | 25 | 240 | 8.0 | 11.3 | 0.00 | 0.00 | 0.00 | 52 | 1014.6 |
| 20260906085924 | 25 | 236 | 8.0 | 11.3 | 0.00 | 0.00 | 0.00 | 51 | 1014.6 |
| 20260906085418 | 25 | 219 | 8.0 | 11.3 | 0.00 | 0.00 | 0.00 | 51 | 1014.5 |
| 20260906084917 | 25 | 231 | 8.0 | 14.5 | 0.00 | 0.00 | 0.00 | 50 | 1014.5 |
| 20260906084412 | 26 | 207 | 4.8 | 14.5 | 0.00 | 0.00 | 0.00 | 50 | 1014.6 |
| 20260906083911 | 26 | 220 | 6.4 | 14.5 | 0.00 | 0.00 | 0.00 | 50 | 1014.7 |
| 20260906083407 | 26 | 212 | 9.7 | 16.1 | 0.00 | 0.00 | 0.00 | 49 | 1014.7 |
| 20260906082906 | 26 | 206 | 6.4 | 14.5 | 0.00 | 0.00 | 0.00 | 49 | 1014.5 |
| 20260906082401 | 26 | 220 | 8.0 | 14.5 | 0.00 | 0.00 | 0.00 | 49 | 1014.6 |
| 20260906081857 | 26 | 201 | 8.0 | 19.3 | 0.00 | 0.00 | 0.00 | 48 | 1014.5 |
| 20260906081353 | 26 | 207 | 8.0 | 14.5 | 0.00 | 0.00 | 0.00 | 48 | 1014.5 |
| 20260906080849 | 26 | 200 | 3.2 | 14.5 | 0.00 | 0.00 | 0.00 | 49 | 1014.5 |
| 20260906080345 | 26 | 215 | 4.8 | 14.5 | 0.00 | 0.00 | 0.00 | 48 | 1014.3 |
| 20260906075844 | 26 | 198 | 11.3 | 16.1 | 0.00 | 0.00 | 0.00 | 48 | 1014.6 |
| 20260906075339 | 26 | 169 | 6.4 | 12.9 | 0.00 | 0.00 | 0.00 | 48 | 1014.6 |
| 20260906074834 | 26 | 153 | 8.0 | 12.9 | 0.00 | 0.00 | 0.00 | 48 | 1014.7 |
| 20260906074334 | 26 | 167 | 4.8 | 14.5 | 0.00 | 0.00 | 0.00 | 48 | 1014.3 |
| 20260906073833 | 26 | 177 | 1.6 | 11.3 | 0.00 | 0.00 | 0.00 | 48 | 1014.5 |
| 20260906073328 | 26 | 214 | 3.2 | 9.7 | 0.00 | 0.00 | 0.00 | 48 | 1014.5 |
| 20260906072825 | 26 | 194 | 6.4 | 12.9 | 0.00 | 0.00 | 0.00 | 47 | 1014.7 |
| 20260906072320 | 26 | 184 | 6.4 | 17.7 | 0.00 | 0.00 | 0.00 | 47 | 1014.5 |
| 20260906071816 | 26 | 195 | 6.4 | 11.3 | 0.00 | 0.00 | 0.00 | 48 | 1014.7 |
| 20260906071316 | 26 | 202 | 6.4 | 11.3 | 0.00 | 0.00 | 0.00 | 48 | 1014.7 |
| 20260906070812 | 26 | 180 | 6.4 | 8.0 | 0.00 | 0.00 | 0.00 | 48 | 1014.8 |
| 20260906070308 | 25 | 177 | 8.0 | 8.0 | 0.00 | 0.00 | 0.00 | 52 | 1014.8 |
| 20260906065802 | 25 | 121 | 3.2 | 4.8 | 0.00 | 0.00 | 0.00 | 53 | 1014.7 |
| 20260906065257 | 25 | 127 | 4.8 | 6.4 | 0.00 | 0.00 | 0.00 | 53 | 1014.7 |
| 20260906064753 | 25 | 126 | 4.8 | 6.4 | 0.00 | 0.00 | 0.00 | 52 | 1014.6 |
| 20260906064249 | 26 | 107 | 3.2 | 4.8 | 0.00 | 0.00 | 0.00 | 49 | 1014.8 |
| 20260906063743 | 26 | 160 | 6.4 | 8.0 | 0.00 | 0.00 | 0.00 | 48 | 1014.8 |
| 20260906063239 | 26 | 180 | 4.8 | 8.0 | 0.00 | 0.00 | 0.00 | 48 | 1014.9 |
| 20260906062734 | 26 | 180 | 3.2 | 8.0 | 0.00 | 0.00 | 0.00 | 49 | 1014.8 |
| 20260906062233 | 26 | 165 | 4.8 | 8.0 | 0.00 | 0.00 | 0.00 | 49 | 1014.7 |
| 20260906061729 | 26 | 178 | 3.2 | 6.4 | 0.00 | 0.00 | 0.00 | 48 | 1014.8 |
| 20260906061225 | 26 | 164 | 4.8 | 6.4 | 0.00 | 0.00 | 0.00 | 48 | 1014.8 |
| 20260906060721 | 27 | 171 | 4.8 | 8.0 | 0.00 | 0.00 | 0.00 | 47 | 1014.8 |
| 20260906060218 | 27 | 180 | 6.4 | 12.9 | 0.00 | 0.00 | 0.00 | 46 | 1014.9 |
| 20260906055713 | 27 | 166 | 6.4 | 14.5 | 0.00 | 0.00 | 0.00 | 46 | 1015.0 |
| 20260906055209 | 27 | 174 | 6.4 | 14.5 | 0.00 | 0.00 | 0.00 | 46 | 1014.7 |
| 20260906054704 | 27 | 165 | 6.4 | 11.3 | 0.00 | 0.00 | 0.00 | 46 | 1014.9 |
| 20260906054158 | 27 | 160 | 6.4 | 14.5 | 0.00 | 0.00 | 0.00 | 46 | 1014.8 |
| 20260906053655 | 26 | 180 | 8.0 | 11.3 | 0.00 | 0.00 | 0.00 | 47 | 1014.7 |
| 20260906053150 | 26 | 142 | 4.8 | 11.3 | 0.00 | 0.00 | 0.00 | 48 | 1014.7 |
| 20260906052645 | 26 | 130 | 4.8 | 9.7 | 0.00 | 0.00 | 0.00 | 48 | 1014.7 |
| 20260906052142 | 26 | 165 | 8.0 | 16.1 | 0.00 | 0.00 | 0.00 | 47 | 1014.7 |
| 20260906051638 | 26 | 163 | 3.2 | 6.4 | 0.00 | 0.00 | 0.00 | 50 | 1014.5 |
| 20260906051137 | 26 | 153 | 4.8 | 6.4 | 0.00 | 0.00 | 0.00 | 50 | 1014.8 |
| 20260906050633 | 26 | 184 | 4.8 | 8.0 | 0.00 | 0.00 | 0.00 | 50 | 1014.7 |
| 20260906050128 | 26 | 139 | 4.8 | 12.9 | 0.00 | 0.00 | 0.00 | 48 | 1014.7 |
| 20260906045627 | 26 | 124 | 6.4 | 11.3 | 0.00 | 0.00 | 0.00 | 48 | 1014.9 |
| 20260906045122 | 26 | 150 | 8.0 | 8.0 | 0.00 | 0.00 | 0.00 | 48 | 1014.9 |
| 20260906044618 | 27 | 162 | 3.2 | 11.3 | 0.00 | 0.00 | 0.00 | 47 | 1014.8 |
| 20260906044113 | 27 | 132 | 12.9 | 14.5 | 0.00 | 0.00 | 0.00 | 46 | 1014.8 |
| 20260906043609 | 27 | 142 | 11.3 | 14.5 | 0.00 | 0.00 | 0.00 | 46 | 1014.7 |
| 20260906043104 | 27 | 144 | 8.0 | 14.5 | 0.00 | 0.00 | 0.00 | 45 | 1014.8 |
| 20260906042603 | 27 | 140 | 9.7 | 14.5 | 0.00 | 0.00 | 0.00 | 45 | 1014.7 |
| 20260906042052 | 28 | 136 | 9.7 | 19.3 | 0.00 | 0.00 | 0.00 | 44 | 1014.7 |
| 20260906041548 | 28 | 137 | 8.0 | 17.7 | 0.00 | 0.00 | 0.00 | 43 | 1014.8 |
| 20260906041043 | 28 | 146 | 12.9 | 17.7 | 0.00 | 0.00 | 0.00 | 43 | 1014.7 |
| 20260906040538 | 28 | 147 | 8.0 | 16.1 | 0.00 | 0.00 | 0.00 | 43 | 1014.7 |
| 20260906040028 | 28 | 143 | 8.0 | 16.1 | 0.00 | 0.00 | 0.00 | 42 | 1014.8 |
| 20260906035523 | 28 | 143 | 9.7 | 16.1 | 0.00 | 0.00 | 0.00 | 42 | 1014.7 |
| 20260906035019 | 28 | 143 | 11.3 | 17.7 | 0.00 | 0.00 | 0.00 | 42 | 1015.0 |
| 20260906034519 | 28 | 186 | 11.3 | 14.5 | 0.00 | 0.00 | 0.00 | 42 | 1014.8 |
| 20260906034014 | 28 | 159 | 8.0 | 14.5 | 0.00 | 0.00 | 0.00 | 42 | 1015.0 |
| 20260906033508 | 28 | 151 | 11.3 | 16.1 | 0.00 | 0.00 | 0.00 | 42 | 1014.7 |
| 20260906033004 | 28 | 166 | 9.7 | 16.1 | 0.00 | 0.00 | 0.00 | 42 | 1014.7 |
| 20260906032500 | 28 | 138 | 14.5 | 20.9 | 0.00 | 0.00 | 0.00 | 41 | 1014.5 |
| 20260906031954 | 28 | 141 | 11.3 | 17.7 | 0.00 | 0.00 | 0.00 | 41 | 1014.6 |
| 20260906031450 | 28 | 140 | 11.3 | 17.7 | 0.00 | 0.00 | 0.00 | 41 | 1014.5 |
| 20260906030946 | 29 | 156 | 6.4 | 16.1 | 0.00 | 0.00 | 0.00 | 40 | 1014.3 |
| 20260906030440 | 29 | 150 | 8.0 | 14.5 | 0.00 | 0.00 | 0.00 | 40 | 1014.3 |
| 20260906025940 | 29 | 141 | 12.9 | 19.3 | 0.00 | 0.00 | 0.00 | 40 | 1013.9 |
| 20260906025434 | 29 | 148 | 11.3 | 16.1 | 0.00 | 0.00 | 0.00 | 40 | 1013.8 |
| 20260906024933 | 29 | 157 | 9.7 | 12.9 | 0.00 | 0.00 | 0.00 | 40 | 1013.7 |
| 20260906024432 | 29 | 152 | 8.0 | 19.3 | 0.00 | 0.00 | 0.00 | 39 | 1013.7 |
| 20260906023927 | 29 | 138 | 9.7 | 14.5 | 0.00 | 0.00 | 0.00 | 39 | 1013.8 |
| 20260906023424 | 30 | 141 | 9.7 | 17.7 | 0.00 | 0.00 | 0.00 | 39 | 1013.6 |
| 20260906022924 | 30 | 147 | 8.0 | 14.5 | 0.00 | 0.00 | 0.00 | 39 | 1013.6 |
| 20260906022419 | 29 | 149 | 6.4 | 11.3 | 0.00 | 0.00 | 0.00 | 40 | 1013.5 |
| 20260906021909 | 30 | 154 | 4.8 | 11.3 | 0.00 | 0.00 | 0.00 | 40 | 1013.8 |
| 20260906021408 | 30 | 159 | 4.8 | 11.3 | 0.00 | 0.00 | 0.00 | 40 | 1013.6 |
| 20260906020902 | 30 | 148 | 11.3 | 12.9 | 0.00 | 0.00 | 0.00 | 40 | 1013.5 |
| 20260906020357 | 30 | 151 | 6.4 | 12.9 | 0.00 | 0.00 | 0.00 | 40 | 1013.6 |
| 20260906015852 | 30 | 140 | 9.7 | 14.5 | 0.00 | 0.00 | 0.00 | 40 | 1013.5 |
| 20260906015351 | 30 | 130 | 11.3 | 16.1 | 0.00 | 0.00 | 0.00 | 39 | 1013.2 |
| 20260906014850 | 30 | 135 | 12.9 | 16.1 | 0.00 | 0.00 | 0.00 | 39 | 1013.1 |
| 20260906014345 | 30 | 146 | 11.3 | 16.1 | 0.00 | 0.00 | 0.00 | 39 | 1012.9 |
| 20260906013841 | 30 | 146 | 11.3 | 17.7 | 0.00 | 0.00 | 0.00 | 39 | 1012.8 |
| 20260906013337 | 30 | 167 | 4.8 | 16.1 | 0.00 | 0.00 | 0.00 | 39 | 1012.9 |
| 20260906012832 | 30 | 135 | 8.0 | 17.7 | 0.00 | 0.00 | 0.00 | 39 | 1012.7 |
| 20260906012327 | 31 | 155 | 9.7 | 14.5 | 0.00 | 0.00 | 0.00 | 38 | 1012.3 |
| 20260906011827 | 31 | 139 | 11.3 | 20.9 | 0.00 | 0.00 | 0.00 | 38 | 1012.6 |
| 20260906011322 | 31 | 129 | 14.5 | 24.1 | 0.00 | 0.00 | 0.00 | 38 | 1012.7 |
| 20260906010818 | 31 | 135 | 14.5 | 22.5 | 0.00 | 0.00 | 0.00 | 37 | 1012.7 |
| 20260906010314 | 31 | 132 | 16.1 | 25.7 | 0.00 | 0.00 | 0.00 | 37 | 1012.5 |
| 20260906005809 | 32 | 145 | 11.3 | 20.9 | 0.00 | 0.00 | 0.00 | 36 | 1012.6 |
| 20260906005308 | 32 | 142 | 12.9 | 17.7 | 0.00 | 0.00 | 0.00 | 36 | 1012.6 |
| 20260906004806 | 32 | 143 | 12.9 | 16.1 | 0.00 | 0.00 | 0.00 | 36 | 1012.9 |
| 20260906004301 | 32 | 134 | 17.7 | 22.5 | 0.00 | 0.00 | 0.00 | 35 | 1012.5 |
| 20260906003756 | 32 | 138 | 20.9 | 22.5 | 0.00 | 0.00 | 0.00 | 34 | 1012.6 |
| 20260906003252 | 32 | 133 | 11.3 | 19.3 | 0.00 | 0.00 | 0.00 | 35 | 1012.5 |
| 20260906002746 | 32 | 137 | 14.5 | 17.7 | 0.00 | 0.00 | 0.00 | 34 | 1012.5 |
| 20260906002241 | 33 | 133 | 14.5 | 20.9 | 0.00 | 0.00 | 0.00 | 34 | 1012.5 |
| 20260906001736 | 33 | 132 | 14.5 | 20.9 | 0.00 | 0.00 | 0.00 | 34 | 1012.5 |
| 20260906001231 | 33 | 139 | 16.1 | 25.7 | 0.00 | 0.00 | 0.00 | 33 | 1012.2 |
| 20260906000727 | 33 | 133 | 17.7 | 20.9 | 0.00 | 0.00 | 0.00 | 33 | 1012.5 |
| 20260906000227 | 33 | 127 | 19.3 | 24.1 | 0.00 | 0.00 | 0.00 | 33 | 1012.1 |
| 20260905235721 | 33 | 132 | 19.3 | 24.1 | 0.00 | 0.00 | 0.00 | 33 | 1011.9 |
| 20260905235216 | 33 | 130 | 19.3 | 30.6 | 0.00 | 0.00 | 0.00 | 33 | 1012.0 |
| 20260905234711 | 33 | 137 | 19.3 | 27.4 | 0.00 | 0.00 | 0.00 | 33 | 1011.8 |
| 20260905234207 | 33 | 133 | 24.1 | 29.0 | 0.00 | 0.00 | 0.00 | 33 | 1011.9 |
| 20260905233702 | 33 | 139 | 14.5 | 33.8 | 0.00 | 0.00 | 0.00 | 33 | 1011.7 |
| 20260905233201 | 34 | 154 | 12.9 | 27.4 | 0.00 | 0.00 | 0.00 | 32 | 1011.7 |
| 20260905232656 | 34 | 136 | 11.3 | 14.5 | 0.00 | 0.00 | 0.00 | 32 | 1011.5 |
| 20260905232152 | 35 | 152 | 8.0 | 20.9 | 0.00 | 0.00 | 0.00 | 32 | 1011.3 |
| 20260905231648 | 35 | 133 | 11.3 | 20.9 | 0.00 | 0.00 | 0.00 | 29 | 1011.3 |
| 20260905231143 | 35 | 166 | 9.7 | 17.7 | 0.00 | 0.00 | 0.00 | 29 | 1011.3 |
| 20260905230639 | 35 | 214 | 8.0 | 9.7 | 0.00 | 0.00 | 0.00 | 28 | 1011.3 |
| 20260905230137 | 35 | 220 | 8.0 | 17.7 | 0.00 | 0.00 | 0.00 | 28 | 1011.7 |
| 20260905225636 | 36 | 232 | 6.4 | 16.1 | 0.00 | 0.00 | 0.00 | 29 | 1011.3 |
| 20260905225131 | 35 | 151 | 8.0 | 17.7 | 0.00 | 0.00 | 0.00 | 29 | 1011.6 |
| 20260905224630 | 36 | 180 | 11.3 | 17.7 | 0.00 | 0.00 | 0.00 | 29 | 1011.7 |
| 20260905224125 | 36 | 141 | 14.5 | 20.9 | 0.00 | 0.00 | 0.00 | 28 | 1011.6 |
| 20260905223622 | 36 | 173 | 4.8 | 14.5 | 0.00 | 0.00 | 0.00 | 28 | 1011.2 |
| 20260905223118 | 36 | 149 | 9.7 | 14.5 | 0.00 | 0.00 | 0.00 | 27 | 1011.7 |
| 20260905222613 | 36 | 158 | 9.7 | 19.3 | 0.00 | 0.00 | 0.00 | 28 | 1011.5 |
| 20260905222108 | 36 | 207 | 17.7 | 25.7 | 0.00 | 0.00 | 0.00 | 28 | 1011.6 |
| 20260905221604 | 36 | 153 | 11.3 | 20.9 | 0.00 | 0.00 | 0.00 | 29 | 1011.2 |
| 20260905221100 | 36 | 199 | 19.3 | 24.1 | 0.00 | 0.00 | 0.00 | 28 | 1011.7 |
| 20260905220555 | 36 | 196 | 12.9 | 19.3 | 0.00 | 0.00 | 0.00 | 28 | 1011.7 |
| 20260905220052 | 36 | 202 | 19.3 | 20.9 | 0.00 | 0.00 | 0.00 | 28 | 1011.6 |
| 20260905215551 | 36 | 193 | 8.0 | 12.9 | 0.00 | 0.00 | 0.00 | 27 | 1011.7 |
| 20260905215047 | 36 | 204 | 11.3 | 20.9 | 0.00 | 0.00 | 0.00 | 28 | 1011.8 |
| 20260905214542 | 36 | 219 | 17.7 | 22.5 | 0.00 | 0.00 | 0.00 | 28 | 1011.8 |
| 20260905214037 | 36 | 198 | 9.7 | 27.4 | 0.00 | 0.00 | 0.00 | 28 | 1011.8 |
| 20260905213533 | 36 | 160 | 8.0 | 20.9 | 0.00 | 0.00 | 0.00 | 28 | 1012.2 |
| 20260905213028 | 36 | 233 | 14.5 | 24.1 | 0.00 | 0.00 | 0.00 | 29 | 1012.0 |